Time;durP1;ratioP1;P1;durP2;ratioP2;P2;SDS_P1;SDS_P2;PMS_P1;PMS_P2;Temp;Humidity;BMP_temperature;BMP_pressure;BME280_temperature;BME280_humidity;BME280_pressure;Samples;Min_cycle;Max_cycle;Signal;HPM_P1;HPM_P2
2023/05/25 00:00:11;;;;;;;9.18;5.15;;;10.80;99.90;;;;;;5024831;28;20037;-69
2023/05/25 00:02:38;;;;;;;8.65;4.03;;;10.80;99.90;;;;;;5025006;28;20139;-66
2023/05/25 00:05:07;;;;;;;6.22;4.13;;;10.70;99.90;;;;;;5015149;28;20034;-67
2023/05/25 00:07:32;;;;;;;9.20;4.50;;;10.70;99.90;;;;;;4986051;28;20057;-68
2023/05/25 00:09:58;;;;;;;9.63;4.60;;;10.70;99.90;;;;;;5005024;28;20041;-67
2023/05/25 00:12:24;;;;;;;7.00;4.10;;;10.70;99.90;;;;;;5004915;28;20047;-67
2023/05/25 00:14:50;;;;;;;9.57;4.90;;;10.70;99.90;;;;;;5004428;28;20029;-68
2023/05/25 00:17:17;;;;;;;7.45;4.07;;;10.70;99.90;;;;;;5004812;28;20125;-67
2023/05/25 00:19:44;;;;;;;6.72;4.07;;;10.70;99.90;;;;;;5004954;28;20037;-67
2023/05/25 00:22:10;;;;;;;10.98;4.47;;;10.70;99.90;;;;;;5004797;28;20494;-69
2023/05/25 00:24:37;;;;;;;10.23;4.50;;;10.60;99.90;;;;;;5005092;28;20034;-67
2023/05/25 00:27:03;;;;;;;7.72;4.47;;;10.60;99.90;;;;;;5005234;28;20065;-66
2023/05/25 00:29:29;;;;;;;11.25;4.85;;;10.60;99.90;;;;;;5004137;28;20057;-66
2023/05/25 00:31:55;;;;;;;7.97;4.15;;;10.60;99.90;;;;;;5005266;28;20453;-67
2023/05/25 00:34:21;;;;;;;7.40;4.47;;;10.60;99.90;;;;;;5005601;28;20120;-67
2023/05/25 00:36:48;;;;;;;9.80;5.10;;;10.60;99.90;;;;;;5024285;28;20124;-66
2023/05/25 00:39:15;;;;;;;8.38;5.20;;;10.60;99.90;;;;;;5024206;28;20120;-67
2023/05/25 00:41:43;;;;;;;10.82;4.60;;;10.60;99.90;;;;;;5024441;28;20060;-66
2023/05/25 00:44:09;;;;;;;11.23;5.70;;;10.60;99.90;;;;;;5006291;28;20490;-68
2023/05/25 00:46:36;;;;;;;11.20;5.03;;;10.60;99.90;;;;;;5006608;28;20053;-67
2023/05/25 00:49:03;;;;;;;9.15;5.28;;;10.60;99.90;;;;;;4986327;28;20144;-66
2023/05/25 00:51:31;;;;;;;9.23;5.22;;;10.60;99.90;;;;;;5003957;28;20045;-66
2023/05/25 00:53:58;;;;;;;10.00;4.88;;;10.60;99.90;;;;;;4986295;28;20026;-66
2023/05/25 00:56:30;;;;;;;9.65;5.32;;;10.50;99.90;;;;;;4986707;28;20421;-66
2023/05/25 00:58:59;;;;;;;9.23;5.28;;;10.50;99.90;;;;;;5003779;28;20123;-67
2023/05/25 01:01:27;;;;;;;8.45;4.32;;;10.50;99.90;;;;;;5004330;28;20065;-67
2023/05/25 01:03:56;;;;;;;9.15;5.35;;;10.50;99.90;;;;;;5004736;28;20026;-68
2023/05/25 01:06:22;;;;;;;10.57;5.35;;;10.50;99.90;;;;;;5004272;28;20034;-67
2023/05/25 01:08:59;;;;;;;8.98;5.15;;;10.50;99.90;;;;;;5004272;28;20426;-67
2023/05/25 01:11:35;;;;;;;8.18;5.00;;;10.50;99.90;;;;;;5004208;28;20566;-65
2023/05/25 01:14:02;;;;;;;9.25;4.82;;;10.50;99.90;;;;;;4986216;28;20068;-69
2023/05/25 01:16:28;;;;;;;9.02;4.95;;;10.40;99.90;;;;;;4986224;28;20037;-68
2023/05/25 01:18:54;;;;;;;10.40;5.60;;;10.40;99.90;;;;;;5004870;28;20026;-67
2023/05/25 01:21:40;;;;;;;6.80;4.70;;;10.40;99.90;;;;;;5006867;28;20079;-66
2023/05/25 01:24:39;;;;;;;7.70;4.65;;;10.40;99.90;;;;;;4990512;28;20025;-68
2023/05/25 01:27:34;;;;;;;8.75;5.25;;;10.40;99.90;;;;;;4989811;28;20038;-66
2023/05/25 01:30:02;;;;;;;10.00;5.25;;;10.30;99.90;;;;;;5007443;28;20037;-67
2023/05/25 01:32:31;;;;;;;10.38;4.60;;;10.30;99.90;;;;;;5007757;28;20113;-67
2023/05/25 01:34:58;;;;;;;9.95;4.22;;;10.30;99.90;;;;;;4989810;28;20129;-69
2023/05/25 01:37:26;;;;;;;10.35;4.57;;;10.30;99.90;;;;;;5007371;28;20121;-67
2023/05/25 01:39:51;;;;;;;9.82;4.50;;;10.30;99.90;;;;;;5007581;28;20445;-68
2023/05/25 01:42:17;;;;;;;6.63;4.30;;;10.30;99.90;;;;;;4989878;28;20034;-69
2023/05/25 01:44:43;;;;;;;9.15;5.28;;;10.30;99.90;;;;;;4989691;28;20034;-66
2023/05/25 01:47:27;;;;;;;11.93;5.38;;;10.30;99.90;;;;;;4989878;28;20029;-66
2023/05/25 01:50:08;;;;;;;15.00;5.95;;;10.30;99.90;;;;;;4990513;28;20398;-66
2023/05/25 01:52:58;;;;;;;9.48;5.22;;;10.30;99.90;;;;;;4989492;28;20123;-68
2023/05/25 01:55:27;;;;;;;9.10;4.72;;;10.30;99.90;;;;;;4989804;28;20062;-66
2023/05/25 01:57:57;;;;;;;8.02;5.10;;;10.30;99.90;;;;;;5009316;28;20125;-65
2023/05/25 02:00:30;;;;;;;9.55;5.10;;;10.30;99.90;;;;;;4999818;28;20131;-66
2023/05/25 02:02:57;;;;;;;8.98;4.93;;;10.30;99.90;;;;;;5008804;28;20416;-67
2023/05/25 02:05:23;;;;;;;9.25;4.88;;;10.30;99.90;;;;;;5008193;28;20037;-66
2023/05/25 02:07:48;;;;;;;10.73;5.07;;;10.30;99.90;;;;;;5008008;28;20041;-67
2023/05/25 02:10:14;;;;;;;9.90;5.03;;;10.30;99.90;;;;;;5008358;28;20133;-67
2023/05/25 02:12:41;;;;;;;8.82;5.20;;;10.30;99.90;;;;;;5026312;28;20025;-64
2023/05/25 02:15:07;;;;;;;14.50;6.40;;;10.30;99.90;;;;;;5001162;28;20431;-64
2023/05/25 02:17:36;;;;;;;12.00;5.57;;;10.30;99.90;;;;;;4988771;28;20037;-64
2023/05/25 02:20:04;;;;;;;10.80;5.40;;;10.20;99.90;;;;;;5006976;28;20044;-64
2023/05/25 02:22:31;;;;;;;7.68;5.10;;;10.20;99.90;;;;;;4988895;28;20108;-64
2023/05/25 02:24:57;;;;;;;12.70;5.97;;;10.20;99.90;;;;;;5018223;28;20049;-64
2023/05/25 02:27:23;;;;;;;11.30;6.00;;;10.30;99.90;;;;;;5026845;28;20029;-64
2023/05/25 02:29:49;;;;;;;9.63;5.68;;;10.30;99.90;;;;;;5007801;28;20515;-64
2023/05/25 02:32:15;;;;;;;10.05;5.60;;;10.20;99.90;;;;;;4992166;28;20095;-64
2023/05/25 02:34:41;;;;;;;10.18;5.80;;;10.20;99.90;;;;;;5008493;28;20539;-64
2023/05/25 02:37:07;;;;;;;11.32;5.72;;;10.20;99.90;;;;;;5008227;28;20040;-64
2023/05/25 02:39:32;;;;;;;15.40;5.40;;;10.20;99.90;;;;;;5007704;28;20462;-64
2023/05/25 02:42:00;;;;;;;13.15;6.07;;;10.20;99.90;;;;;;5007738;28;20585;-64
2023/05/25 02:44:26;;;;;;;10.05;5.82;;;10.20;99.90;;;;;;5007303;28;20571;-63
2023/05/25 02:46:52;;;;;;;12.38;6.40;;;10.20;99.90;;;;;;5005562;28;20041;-64
2023/05/25 02:49:17;;;;;;;9.57;5.65;;;10.20;99.90;;;;;;4988738;28;20033;-64
2023/05/25 02:51:44;;;;;;;9.75;5.32;;;10.10;99.90;;;;;;4989220;28;20037;-64
2023/05/25 02:54:10;;;;;;;12.35;6.30;;;10.20;99.90;;;;;;4989572;28;20040;-64
2023/05/25 02:56:36;;;;;;;10.10;5.85;;;10.10;99.90;;;;;;5018664;28;20035;-64
2023/05/25 02:59:02;;;;;;;11.43;6.00;;;10.10;99.90;;;;;;5007769;28;20149;-65
2023/05/25 03:01:33;;;;;;;13.70;6.22;;;10.10;99.90;;;;;;5008435;28;20116;-65
2023/05/25 03:03:59;;;;;;;9.70;5.70;;;10.10;99.90;;;;;;5008999;28;20056;-64
2023/05/25 03:06:27;;;;;;;11.70;6.30;;;10.10;99.90;;;;;;5009620;28;20029;-65
2023/05/25 03:09:03;;;;;;;11.43;6.72;;;10.10;99.90;;;;;;5008496;28;20029;-65
2023/05/25 03:11:29;;;;;;;10.40;6.50;;;10.10;99.90;;;;;;5025633;28;20104;-65
2023/05/25 03:13:56;;;;;;;15.45;7.40;;;10.10;99.90;;;;;;5007734;28;20059;-65
2023/05/25 03:16:22;;;;;;;10.50;6.00;;;10.10;99.90;;;;;;5007621;28;20022;-65
2023/05/25 03:18:48;;;;;;;11.77;6.13;;;10.10;99.90;;;;;;5006279;28;20029;-64
2023/05/25 03:21:14;;;;;;;12.50;6.22;;;10.10;99.90;;;;;;5006970;28;20057;-65
2023/05/25 03:23:40;;;;;;;11.95;6.55;;;10.00;99.90;;;;;;5007325;28;20052;-65
2023/05/25 03:26:07;;;;;;;11.20;5.85;;;10.10;99.90;;;;;;5007745;28;20025;-65
2023/05/25 03:28:33;;;;;;;12.45;6.00;;;10.00;99.90;;;;;;5007033;28;20543;-64
2023/05/25 03:31:00;;;;;;;11.82;6.25;;;10.00;99.90;;;;;;5007684;28;20033;-64
2023/05/25 03:33:26;;;;;;;13.38;6.85;;;10.10;99.90;;;;;;5007881;28;20029;-65
2023/05/25 03:35:52;;;;;;;12.90;6.75;;;10.00;99.90;;;;;;5025705;28;20041;-64
2023/05/25 03:38:17;;;;;;;11.60;6.63;;;10.00;99.90;;;;;;5025468;28;20131;-65
2023/05/25 03:40:44;;;;;;;9.43;5.80;;;10.00;99.90;;;;;;5007258;28;20033;-64
2023/05/25 03:43:10;;;;;;;12.57;6.10;;;10.00;99.90;;;;;;5006940;28;20044;-64
2023/05/25 03:45:36;;;;;;;9.70;6.13;;;10.10;99.90;;;;;;5007575;28;20148;-65
2023/05/25 03:48:02;;;;;;;14.77;6.55;;;10.10;99.90;;;;;;5025502;28;20168;-65
2023/05/25 03:50:31;;;;;;;11.82;5.90;;;10.10;99.90;;;;;;5005613;28;20128;-65
2023/05/25 03:52:57;;;;;;;11.70;5.90;;;10.20;99.90;;;;;;5005402;28;20140;-63
2023/05/25 03:55:22;;;;;;;11.82;5.97;;;10.20;99.90;;;;;;5019536;28;20026;-65
2023/05/25 03:57:49;;;;;;;10.38;5.90;;;10.20;99.90;;;;;;5024650;28;20099;-66
2023/05/25 04:00:15;;;;;;;14.95;6.32;;;10.20;99.90;;;;;;5007201;28;20060;-66
2023/05/25 04:02:42;;;;;;;10.00;5.80;;;10.20;99.90;;;;;;5007595;28;20569;-66
2023/05/25 04:05:08;;;;;;;12.93;6.50;;;10.20;99.90;;;;;;5024845;28;20060;-64
2023/05/25 04:07:35;;;;;;;12.43;5.72;;;10.30;99.90;;;;;;5024825;28;20045;-64
2023/05/25 04:10:02;;;;;;;10.02;6.18;;;10.30;99.90;;;;;;5024975;28;20529;-65
2023/05/25 04:12:28;;;;;;;8.70;5.97;;;10.30;99.90;;;;;;5024353;28;20422;-64
2023/05/25 04:14:53;;;;;;;11.80;6.95;;;10.30;99.90;;;;;;5006768;28;20025;-63
2023/05/25 04:17:23;;;;;;;10.55;6.18;;;10.40;99.90;;;;;;5024928;28;20026;-63
2023/05/25 04:19:50;;;;;;;8.27;5.75;;;10.40;99.90;;;;;;5006112;28;20030;-64
2023/05/25 04:22:17;;;;;;;10.48;5.75;;;10.40;99.90;;;;;;5007198;28;20152;-66
2023/05/25 04:24:44;;;;;;;11.82;5.90;;;10.40;99.90;;;;;;4990847;28;20516;-64
2023/05/25 04:27:10;;;;;;;9.35;5.75;;;10.50;99.90;;;;;;4987016;28;20117;-63
2023/05/25 04:29:37;;;;;;;9.57;6.00;;;10.50;99.90;;;;;;4986724;28;20124;-64
2023/05/25 04:32:22;;;;;;;12.82;6.35;;;10.50;99.90;;;;;;5003091;28;20033;-64
2023/05/25 04:35:15;;;;;;;10.93;6.55;;;10.60;99.90;;;;;;4986961;28;20502;-64
2023/05/25 04:37:45;;;;;;;9.35;5.93;;;10.60;99.90;;;;;;4986203;28;20552;-64
2023/05/25 04:40:13;;;;;;;13.98;6.45;;;10.70;99.90;;;;;;4986993;28;20058;-64
2023/05/25 04:42:40;;;;;;;13.38;6.53;;;10.70;99.90;;;;;;4986817;28;20033;-64
2023/05/25 04:45:10;;;;;;;12.07;6.68;;;10.80;99.90;;;;;;4987140;28;20080;-64
2023/05/25 04:47:39;;;;;;;12.23;6.43;;;10.80;99.90;;;;;;4986339;28;20038;-63
2023/05/25 04:50:08;;;;;;;13.02;5.95;;;10.90;99.90;;;;;;4986339;28;20068;-64
2023/05/25 04:52:34;;;;;;;16.33;8.05;;;11.00;99.90;;;;;;5003699;28;20128;-64
2023/05/25 04:55:01;;;;;;;14.27;6.82;;;11.00;99.90;;;;;;4986525;28;20072;-64
2023/05/25 04:57:30;;;;;;;17.25;6.97;;;11.10;99.90;;;;;;4969934;28;20804;-64
2023/05/25 04:59:56;;;;;;;21.05;9.95;;;11.10;99.90;;;;;;4986876;28;20034;-64
2023/05/25 05:02:23;;;;;;;14.25;7.25;;;11.20;99.90;;;;;;5004379;28;20026;-65
2023/05/25 05:04:52;;;;;;;13.15;7.05;;;11.20;99.90;;;;;;4986353;28;20056;-65
2023/05/25 05:07:22;;;;;;;8.75;6.15;;;11.30;99.90;;;;;;4970771;28;20557;-64
2023/05/25 05:09:48;;;;;;;12.98;7.05;;;11.30;99.90;;;;;;4985883;28;20561;-64
2023/05/25 05:12:14;;;;;;;17.65;8.38;;;11.40;99.90;;;;;;4986452;28;20131;-64
2023/05/25 05:14:46;;;;;;;23.60;9.32;;;11.50;99.90;;;;;;4987153;28;20040;-64
2023/05/25 05:17:12;;;;;;;13.70;8.07;;;11.60;99.90;;;;;;4986923;28;20034;-65
2023/05/25 05:19:38;;;;;;;18.15;8.93;;;11.70;99.90;;;;;;5003922;28;20394;-64
2023/05/25 05:22:08;;;;;;;16.40;8.90;;;11.90;99.90;;;;;;4986882;28;20057;-64
2023/05/25 05:24:34;;;;;;;15.48;8.70;;;12.00;99.90;;;;;;4986188;28;20038;-65
2023/05/25 05:27:00;;;;;;;22.02;10.18;;;12.20;99.90;;;;;;4986005;28;20037;-64
2023/05/25 05:29:36;;;;;;;17.35;8.32;;;12.30;99.90;;;;;;4985409;28;20129;-65
2023/05/25 05:32:02;;;;;;;15.57;8.77;;;12.50;99.90;;;;;;5003395;28;20038;-65
2023/05/25 05:34:27;;;;;;;20.48;9.20;;;12.70;99.90;;;;;;5003194;28;20038;-65
2023/05/25 05:36:54;;;;;;;13.35;8.05;;;12.80;99.90;;;;;;4985948;28;20072;-65
2023/05/25 05:39:20;;;;;;;11.48;7.43;;;13.00;99.90;;;;;;4985548;28;20585;-66
2023/05/25 05:41:45;;;;;;;17.15;8.55;;;13.10;99.90;;;;;;4985617;28;20489;-68
2023/05/25 05:44:12;;;;;;;14.70;8.68;;;13.10;99.90;;;;;;4985126;28;20044;-67
2023/05/25 05:46:38;;;;;;;16.60;9.07;;;13.30;99.90;;;;;;4986215;28;20030;-67
2023/05/25 05:49:04;;;;;;;17.67;8.93;;;13.30;99.90;;;;;;5010860;28;20456;-67
2023/05/25 05:51:30;;;;;;;22.70;9.80;;;13.40;99.90;;;;;;5023461;28;20033;-67
2023/05/25 05:53:56;;;;;;;19.73;9.43;;;13.50;99.90;;;;;;5005890;28;20052;-66
2023/05/25 05:56:22;;;;;;;24.60;9.80;;;13.60;99.90;;;;;;5005797;28;20045;-68
2023/05/25 05:58:50;;;;;;;16.33;7.95;;;13.70;99.90;;;;;;5023114;28;20029;-67
2023/05/25 06:01:16;;;;;;;15.75;8.07;;;13.90;99.90;;;;;;5005491;28;20036;-66
2023/05/25 06:03:43;;;;;;;15.85;8.50;;;13.90;99.90;;;;;;5023573;28;20029;-69
2023/05/25 06:06:09;;;;;;;26.83;9.20;;;14.10;99.90;;;;;;5026699;28;20072;-68
2023/05/25 06:08:36;;;;;;;18.35;8.95;;;14.20;99.90;;;;;;5008633;28;20026;-68
2023/05/25 06:11:02;;;;;;;20.02;8.45;;;14.30;99.90;;;;;;5009023;28;20036;-68
2023/05/25 06:13:28;;;;;;;16.30;8.90;;;14.50;99.90;;;;;;5009160;28;20643;-68
2023/05/25 06:15:54;;;;;;;15.38;8.00;;;14.60;99.90;;;;;;5008715;28;20585;-66
2023/05/25 06:18:22;;;;;;;14.30;7.90;;;14.70;99.90;;;;;;5007999;28;20890;-66
2023/05/25 06:20:48;;;;;;;17.40;8.85;;;14.90;99.90;;;;;;5004511;28;20034;-67
2023/05/25 06:23:16;;;;;;;18.27;9.65;;;14.90;99.90;;;;;;4988827;28;20129;-67
2023/05/25 06:25:42;;;;;;;17.27;9.23;;;15.00;99.90;;;;;;4988853;28;20416;-67
2023/05/25 06:28:08;;;;;;;20.55;10.23;;;15.20;99.90;;;;;;5006210;28;20037;-68
2023/05/25 06:30:34;;;;;;;16.27;9.05;;;15.30;99.90;;;;;;4989042;28;20046;-69
2023/05/25 06:33:01;;;;;;;18.45;8.70;;;15.40;99.90;;;;;;4988746;28;20128;-67
2023/05/25 06:35:27;;;;;;;23.20;9.32;;;15.50;99.90;;;;;;4989062;28;20046;-66
2023/05/25 06:37:55;;;;;;;18.35;8.93;;;15.50;99.90;;;;;;4989093;28;20034;-69
2023/05/25 06:40:21;;;;;;;19.50;10.32;;;15.60;99.90;;;;;;4988762;28;20116;-66
2023/05/25 06:42:47;;;;;;;24.75;10.18;;;15.60;99.40;;;;;;5006968;28;20117;-67
2023/05/25 06:45:31;;;;;;;26.33;10.85;;;15.70;99.60;;;;;;5006881;28;20048;-66
2023/05/25 06:47:58;;;;;;;23.33;10.15;;;15.80;99.50;;;;;;4995834;28;20053;-65
2023/05/25 06:50:24;;;;;;;19.88;9.27;;;15.70;99.50;;;;;;4989002;28;20061;-67
2023/05/25 06:52:50;;;;;;;20.58;9.48;;;15.60;99.50;;;;;;5006060;28;20369;-67
2023/05/25 06:55:16;;;;;;;15.85;9.70;;;15.70;99.80;;;;;;4986163;28;20034;-68
2023/05/25 06:57:42;;;;;;;20.10;9.35;;;15.80;99.80;;;;;;5002626;28;20022;-67
2023/05/25 07:00:11;;;;;;;20.80;9.52;;;15.80;99.20;;;;;;5002982;28;20034;-68
2023/05/25 07:02:38;;;;;;;20.73;9.45;;;15.90;99.20;;;;;;4984684;28;20076;-67
2023/05/25 07:05:04;;;;;;;17.67;10.05;;;15.90;99.20;;;;;;4986375;28;20402;-68
2023/05/25 07:07:31;;;;;;;22.77;8.57;;;15.80;99.00;;;;;;5005656;28;20129;-68
2023/05/25 07:09:57;;;;;;;22.92;10.18;;;15.90;99.40;;;;;;5005859;28;20080;-68
2023/05/25 07:12:23;;;;;;;15.43;9.00;;;16.00;99.20;;;;;;5006398;28;20038;-69
2023/05/25 07:14:48;;;;;;;22.40;11.45;;;16.00;98.80;;;;;;5006701;28;20139;-68
2023/05/25 07:17:15;;;;;;;16.23;9.00;;;16.00;99.10;;;;;;5006425;28;20510;-67
2023/05/25 07:19:42;;;;;;;25.45;10.68;;;16.10;99.20;;;;;;5010540;28;20037;-66
2023/05/25 07:22:09;;;;;;;21.60;9.50;;;16.10;99.10;;;;;;5009930;28;20085;-68
2023/05/25 07:24:35;;;;;;;20.30;9.63;;;16.30;98.90;;;;;;5005999;28;20060;-68
2023/05/25 07:27:02;;;;;;;17.42;9.00;;;16.30;99.00;;;;;;5006737;28;20030;-66
2023/05/25 07:29:28;;;;;;;21.50;9.20;;;16.50;99.00;;;;;;5007194;28;20406;-68
2023/05/25 07:31:54;;;;;;;22.25;9.68;;;16.60;98.50;;;;;;5005687;28;20091;-68
2023/05/25 07:34:20;;;;;;;20.63;9.95;;;16.60;98.40;;;;;;5005942;28;20030;-67
2023/05/25 07:36:46;;;;;;;21.27;9.68;;;16.60;98.60;;;;;;5005433;28;20811;-67
2023/05/25 07:39:11;;;;;;;15.45;7.97;;;16.70;98.60;;;;;;5004035;28;20089;-67
2023/05/25 07:41:38;;;;;;;17.02;9.50;;;16.80;98.50;;;;;;5004797;28;20824;-67
2023/05/25 07:44:04;;;;;;;20.38;9.52;;;17.00;98.30;;;;;;5005335;28;20034;-67
2023/05/25 07:46:30;;;;;;;18.85;10.35;;;17.10;98.00;;;;;;5019611;28;20034;-66
2023/05/25 07:48:58;;;;;;;19.90;9.65;;;17.20;97.80;;;;;;5005527;28;20451;-67
2023/05/25 07:51:27;;;;;;;27.55;10.88;;;17.30;97.40;;;;;;5005279;28;20430;-68
2023/05/25 07:53:55;;;;;;;16.52;9.38;;;17.40;97.30;;;;;;5005301;28;20033;-66
2023/05/25 07:56:21;;;;;;;17.92;9.85;;;17.40;97.40;;;;;;5005882;28;20030;-66
2023/05/25 07:58:48;;;;;;;26.45;11.32;;;17.50;97.00;;;;;;5005260;28;20037;-66
2023/05/25 08:01:15;;;;;;;23.33;10.98;;;17.60;97.10;;;;;;5005344;28;20029;-67
2023/05/25 08:03:41;;;;;;;19.23;9.32;;;17.70;97.10;;;;;;5005853;28;20076;-67
2023/05/25 08:06:07;;;;;;;22.50;11.52;;;17.80;97.30;;;;;;5005574;28;20042;-66
2023/05/25 08:08:35;;;;;;;23.20;11.60;;;17.90;96.60;;;;;;5004970;28;20049;-67
2023/05/25 08:11:02;;;;;;;18.48;10.48;;;17.90;96.20;;;;;;5005404;28;20053;-65
2023/05/25 08:13:27;;;;;;;20.77;11.38;;;17.90;96.20;;;;;;5005447;28;20074;-65
2023/05/25 08:15:53;;;;;;;23.45;12.35;;;17.90;96.20;;;;;;5004993;28;20034;-66
2023/05/25 08:18:19;;;;;;;17.40;10.32;;;17.90;96.20;;;;;;5005154;28;20049;-68
2023/05/25 08:20:45;;;;;;;19.58;10.02;;;17.90;96.10;;;;;;5005138;28;20065;-65
2023/05/25 08:23:11;;;;;;;22.35;10.45;;;17.90;96.00;;;;;;5004924;28;20553;-65
2023/05/25 08:25:37;;;;;;;19.02;9.80;;;17.90;95.90;;;;;;5005148;28;20042;-67
2023/05/25 08:28:03;;;;;;;23.90;10.02;;;17.90;95.70;;;;;;5004349;28;20042;-66
2023/05/25 08:30:29;;;;;;;18.90;10.88;;;17.90;95.80;;;;;;5015722;28;20029;-67
2023/05/25 08:32:55;;;;;;;19.55;9.88;;;17.90;95.80;;;;;;5006933;28;20125;-69
2023/05/25 08:35:21;;;;;;;19.88;9.68;;;17.90;95.50;;;;;;5024641;28;20560;-66
2023/05/25 08:37:47;;;;;;;19.05;9.70;;;18.00;95.40;;;;;;5023968;28;20029;-68
2023/05/25 08:40:15;;;;;;;17.52;9.32;;;18.00;95.30;;;;;;5024918;28;20029;-65
2023/05/25 08:42:42;;;;;;;17.88;9.40;;;18.00;95.60;;;;;;5024588;28;20117;-66
2023/05/25 08:45:09;;;;;;;15.95;9.38;;;18.10;95.60;;;;;;5024220;28;20037;-67
2023/05/25 08:47:41;;;;;;;17.20;10.02;;;18.40;95.10;;;;;;5015770;28;20034;-66
2023/05/25 08:50:11;;;;;;;15.45;8.50;;;18.50;94.50;;;;;;5004878;28;20072;-66
2023/05/25 08:52:43;;;;;;;20.17;10.30;;;18.60;94.30;;;;;;5004438;28;20038;-65
2023/05/25 08:55:10;;;;;;;19.35;9.85;;;18.70;94.40;;;;;;5004739;28;20398;-66
2023/05/25 08:57:58;;;;;;;22.17;9.45;;;18.80;94.00;;;;;;5004035;28;20026;-66
2023/05/25 09:00:30;;;;;;;20.33;9.93;;;18.80;93.70;;;;;;5003612;28;20531;-67
2023/05/25 09:03:05;;;;;;;15.93;9.85;;;18.80;93.90;;;;;;5004220;28;20037;-66
2023/05/25 09:05:35;;;;;;;20.77;9.70;;;18.90;93.80;;;;;;5004438;28;20118;-66
2023/05/25 09:08:09;;;;;;;17.38;8.77;;;19.00;93.10;;;;;;5003567;28;20125;-68
2023/05/25 09:10:36;;;;;;;18.17;8.90;;;19.10;93.40;;;;;;5004415;28;20070;-69
2023/05/25 09:13:02;;;;;;;24.67;9.57;;;19.30;92.60;;;;;;5004317;28;20116;-67
2023/05/25 09:15:28;;;;;;;19.17;9.13;;;19.50;91.40;;;;;;5002960;28;20124;-66
2023/05/25 09:17:54;;;;;;;17.10;8.82;;;19.60;91.60;;;;;;5004268;28;20752;-66
2023/05/25 09:20:21;;;;;;;15.30;8.75;;;19.70;92.10;;;;;;5004230;28;20066;-67
2023/05/25 09:22:47;;;;;;;14.10;9.48;;;19.60;91.90;;;;;;5004128;28;20034;-66
2023/05/25 09:25:19;;;;;;;16.60;8.85;;;19.60;91.60;;;;;;5004381;28;20793;-66
2023/05/25 09:27:45;;;;;;;15.80;8.82;;;19.50;91.90;;;;;;5004601;28;20041;-65
2023/05/25 09:30:11;;;;;;;17.15;7.82;;;19.50;91.50;;;;;;5003575;28;20398;-66
2023/05/25 09:32:37;;;;;;;17.17;8.70;;;19.50;91.60;;;;;;5003913;28;20041;-67
2023/05/25 09:35:08;;;;;;;17.27;8.88;;;19.60;91.50;;;;;;5004031;28;20391;-67
2023/05/25 09:37:35;;;;;;;12.93;7.95;;;19.70;91.30;;;;;;5003537;28;20113;-67
2023/05/25 09:40:01;;;;;;;15.13;8.07;;;19.70;90.90;;;;;;5009732;28;20033;-68
2023/05/25 09:42:27;;;;;;;17.48;8.57;;;19.80;91.10;;;;;;5024883;28;20631;-65
2023/05/25 09:44:52;;;;;;;18.77;8.45;;;19.90;90.90;;;;;;5025724;28;20124;-67
2023/05/25 09:47:19;;;;;;;14.32;7.63;;;20.00;90.60;;;;;;5019580;28;20049;-67
2023/05/25 09:49:46;;;;;;;18.15;9.45;;;20.10;90.70;;;;;;5005720;28;20092;-68
2023/05/25 09:52:13;;;;;;;12.60;6.95;;;20.30;90.30;;;;;;5004158;28;20068;-67
2023/05/25 09:54:42;;;;;;;19.45;7.70;;;20.50;90.50;;;;;;5004840;28;20029;-66
2023/05/25 09:57:09;;;;;;;11.07;7.28;;;20.70;87.80;;;;;;5004776;28;20540;-67
2023/05/25 09:59:35;;;;;;;11.48;7.90;;;21.00;86.70;;;;;;5006321;28;20030;-65
2023/05/25 10:02:01;;;;;;;15.30;7.80;;;21.10;86.60;;;;;;5007824;28;20519;-68
2023/05/25 10:04:27;;;;;;;10.05;6.47;;;21.30;86.30;;;;;;5007983;28;20029;-69
2023/05/25 10:06:53;;;;;;;12.80;6.68;;;21.30;84.80;;;;;;5007447;28;20065;-66
2023/05/25 10:09:19;;;;;;;12.93;6.07;;;21.10;84.30;;;;;;5006789;28;20038;-66
2023/05/25 10:11:46;;;;;;;11.35;7.07;;;21.00;84.60;;;;;;5007281;28;20518;-68
2023/05/25 10:14:18;;;;;;;13.10;7.32;;;20.90;84.10;;;;;;5006915;28;20425;-67
2023/05/25 10:16:49;;;;;;;16.15;6.85;;;20.80;83.60;;;;;;5007228;28;20030;-65
2023/05/25 10:19:41;;;;;;;15.60;6.88;;;20.70;85.20;;;;;;5006978;28;20460;-68
2023/05/25 10:22:24;;;;;;;10.00;5.80;;;20.60;85.70;;;;;;5006993;28;20037;-67
2023/05/25 10:25:24;;;;;;;15.52;6.75;;;20.70;85.10;;;;;;5001554;28;20033;-66
2023/05/25 10:28:20;;;;;;;10.95;6.80;;;20.90;83.40;;;;;;5012884;28;20056;-66
2023/05/25 10:30:48;;;;;;;17.00;6.93;;;21.00;84.10;;;;;;5025965;28;20033;-68
2023/05/25 10:33:14;;;;;;;11.98;6.30;;;21.10;83.50;;;;;;5026066;28;20037;-66
2023/05/25 10:35:42;;;;;;;16.23;7.47;;;21.10;81.50;;;;;;5022276;28;20535;-66
2023/05/25 10:38:10;;;;;;;12.95;7.22;;;21.20;84.10;;;;;;5025241;28;20132;-65
2023/05/25 10:40:37;;;;;;;17.83;9.57;;;21.40;80.80;;;;;;5026431;28;20037;-63
2023/05/25 10:43:05;;;;;;;17.42;7.80;;;21.50;80.60;;;;;;5015168;28;20048;-64
2023/05/25 10:45:32;;;;;;;11.02;6.10;;;21.80;80.70;;;;;;5006471;28;20037;-64
2023/05/25 10:47:57;;;;;;;13.93;7.05;;;22.20;78.80;;;;;;5006149;28;20779;-63
2023/05/25 10:50:25;;;;;;;13.73;7.45;;;22.40;77.90;;;;;;5006331;28;20034;-64
2023/05/25 10:53:21;;;;;;;11.48;7.40;;;22.50;77.90;;;;;;4988599;28;20040;-64
2023/05/25 10:55:52;;;;;;;19.65;10.43;;;22.50;76.30;;;;;;4993946;28;20054;-63
2023/05/25 10:58:20;;;;;;;20.98;10.75;;;22.40;76.80;;;;;;5005605;28;20069;-65
2023/05/25 11:01:08;;;;;;;13.02;8.07;;;22.30;77.50;;;;;;5006045;28;20030;-65
2023/05/25 11:03:45;;;;;;;18.73;10.95;;;22.30;76.70;;;;;;5006487;28;20867;-63
2023/05/25 11:06:14;;;;;;;14.40;8.57;;;21.90;78.40;;;;;;5006349;28;20085;-64
2023/05/25 11:08:57;;;;;;;12.52;7.50;;;21.70;78.80;;;;;;5005442;28;20044;-63
2023/05/25 11:11:41;;;;;;;14.60;8.05;;;21.50;80.00;;;;;;5005812;28;20498;-65
2023/05/25 11:14:28;;;;;;;12.18;7.93;;;21.50;80.00;;;;;;5005292;28;20674;-64
2023/05/25 11:17:23;;;;;;;11.75;7.05;;;21.40;80.40;;;;;;4971514;28;20478;-65
2023/05/25 11:20:01;;;;;;;11.75;7.05;;;21.40;80.60;;;;;;4992277;28;20041;-64
2023/05/25 11:22:31;;;;;;;10.85;6.43;;;21.40;80.80;;;;;;5005130;28;20064;-65
2023/05/25 11:24:59;;;;;;;15.57;7.40;;;21.40;79.40;;;;;;5005552;28;20037;-66
2023/05/25 11:27:31;;;;;;;10.48;5.82;;;21.40;77.80;;;;;;5005748;28;20561;-67
2023/05/25 11:29:58;;;;;;;10.50;5.65;;;21.40;77.00;;;;;;5005771;28;20038;-65
2023/05/25 11:32:25;;;;;;;13.30;5.72;;;21.30;77.20;;;;;;5005633;28;20042;-64
2023/05/25 11:34:52;;;;;;;31.17;8.55;;;21.40;78.10;;;;;;5005819;28;20033;-66
2023/05/25 11:37:20;;;;;;;13.35;7.25;;;21.40;86.50;;;;;;5005806;28;20037;-64
2023/05/25 11:39:53;;;;;;;12.07;6.50;;;21.30;83.40;;;;;;5005026;28;20038;-63
2023/05/25 11:42:23;;;;;;;10.20;6.13;;;21.00;80.70;;;;;;5005753;28;20417;-65
2023/05/25 11:44:49;;;;;;;12.02;6.60;;;20.90;83.90;;;;;;5005900;28;20029;-64
2023/05/25 11:47:21;;;;;;;12.77;7.00;;;20.80;83.80;;;;;;5006453;28;20498;-67
2023/05/25 11:49:48;;;;;;;14.45;6.82;;;20.70;85.10;;;;;;5015957;28;20044;-64
2023/05/25 11:52:18;;;;;;;12.55;6.85;;;20.70;84.00;;;;;;5025294;28;20033;-67
2023/05/25 11:54:45;;;;;;;15.75;7.57;;;20.60;84.60;;;;;;5025777;28;20060;-66
2023/05/25 11:57:19;;;;;;;13.05;7.60;;;20.50;85.00;;;;;;5025606;28;20481;-66
2023/05/25 12:00:00;;;;;;;12.38;7.07;;;20.40;84.90;;;;;;5026999;28;20034;-65
2023/05/25 12:02:26;;;;;;;13.50;6.88;;;20.50;84.00;;;;;;5024413;28;20068;-66
2023/05/25 12:04:58;;;;;;;12.07;7.57;;;20.50;84.40;;;;;;5024604;28;20077;-63
2023/05/25 12:07:28;;;;;;;14.95;8.00;;;20.50;81.70;;;;;;5025171;28;20041;-63
2023/05/25 12:10:07;;;;;;;19.50;9.73;;;20.40;83.30;;;;;;5024626;28;20069;-67
2023/05/25 12:12:40;;;;;;;21.42;9.90;;;20.40;83.10;;;;;;5023587;28;20744;-67
2023/05/25 12:15:09;;;;;;;16.00;9.77;;;20.30;85.00;;;;;;5024753;28;20842;-64
2023/05/25 12:17:35;;;;;;;15.73;9.13;;;20.30;83.60;;;;;;5024228;28;20116;-66
2023/05/25 12:20:01;;;;;;;18.02;10.25;;;20.40;84.30;;;;;;5013394;28;20156;-64
2023/05/25 12:22:27;;;;;;;17.55;9.05;;;20.30;84.70;;;;;;5005072;28;20182;-65
2023/05/25 12:24:53;;;;;;;16.60;9.70;;;20.30;84.50;;;;;;5005332;28;20551;-64
2023/05/25 12:27:21;;;;;;;16.98;8.45;;;20.30;82.80;;;;;;5004621;28;20487;-63
2023/05/25 12:29:48;;;;;;;13.98;9.05;;;20.30;82.90;;;;;;5004748;28;20034;-66
2023/05/25 12:32:15;;;;;;;15.15;8.77;;;20.30;81.80;;;;;;5003192;28;20041;-66
2023/05/25 12:34:40;;;;;;;16.33;9.10;;;20.20;83.70;;;;;;5003979;28;20397;-65
2023/05/25 12:37:20;;;;;;;18.25;9.93;;;20.00;82.60;;;;;;5002459;28;20030;-64
2023/05/25 12:39:46;;;;;;;19.33;11.35;;;20.10;81.50;;;;;;5001371;28;20030;-66
2023/05/25 12:42:15;;;;;;;23.80;12.43;;;20.10;82.70;;;;;;5001938;28;20116;-65
2023/05/25 12:44:42;;;;;;;26.33;13.52;;;20.00;85.20;;;;;;5002238;28;20095;-64